sensor_id;sensor_type;location;lat;lon;timestamp;P1;durP1;ratioP1;P2;durP2;ratioP2
69161;SDS011;56269;51.738;21.652;2023-06-22T00:00:53;28.25;;;20.75;;
69161;SDS011;56269;51.738;21.652;2023-06-22T00:03:30;26.80;;;18.95;;
69161;SDS011;56269;51.738;21.652;2023-06-22T00:05:56;28.10;;;19.20;;
69161;SDS011;56269;51.738;21.652;2023-06-22T00:08:23;27.53;;;19.60;;
69161;SDS011;56269;51.738;21.652;2023-06-22T00:10:49;26.52;;;19.10;;
69161;SDS011;56269;51.738;21.652;2023-06-22T00:13:16;25.83;;;19.38;;
69161;SDS011;56269;51.738;21.652;2023-06-22T00:15:43;27.10;;;19.30;;
69161;SDS011;56269;51.738;21.652;2023-06-22T00:18:10;28.17;;;19.63;;
69161;SDS011;56269;51.738;21.652;2023-06-22T00:20:36;29.67;;;18.77;;
69161;SDS011;56269;51.738;21.652;2023-06-22T00:23:03;23.80;;;16.42;;
69161;SDS011;56269;51.738;21.652;2023-06-22T00:25:34;22.63;;;15.70;;
69161;SDS011;56269;51.738;21.652;2023-06-22T00:28:01;25.40;;;17.38;;
69161;SDS011;56269;51.738;21.652;2023-06-22T00:30:30;24.48;;;16.95;;
69161;SDS011;56269;51.738;21.652;2023-06-22T00:32:57;24.50;;;16.53;;
69161;SDS011;56269;51.738;21.652;2023-06-22T00:35:24;23.00;;;15.18;;
69161;SDS011;56269;51.738;21.652;2023-06-22T00:37:57;23.85;;;15.02;;
69161;SDS011;56269;51.738;21.652;2023-06-22T00:40:26;22.20;;;13.98;;
69161;SDS011;56269;51.738;21.652;2023-06-22T00:42:54;21.65;;;13.63;;
69161;SDS011;56269;51.738;21.652;2023-06-22T00:45:24;22.37;;;13.60;;
69161;SDS011;56269;51.738;21.652;2023-06-22T00:47:51;22.23;;;12.68;;
69161;SDS011;56269;51.738;21.652;2023-06-22T00:50:19;20.17;;;12.63;;
69161;SDS011;56269;51.738;21.652;2023-06-22T00:52:51;21.20;;;13.13;;
69161;SDS011;56269;51.738;21.652;2023-06-22T00:55:18;20.85;;;12.52;;
69161;SDS011;56269;51.738;21.652;2023-06-22T00:57:46;21.07;;;12.57;;
69161;SDS011;56269;51.738;21.652;2023-06-22T01:00:14;19.73;;;12.10;;
69161;SDS011;56269;51.738;21.652;2023-06-22T01:02:45;20.52;;;11.90;;
69161;SDS011;56269;51.738;21.652;2023-06-22T01:05:14;19.15;;;10.57;;
69161;SDS011;56269;51.738;21.652;2023-06-22T01:07:53;17.38;;;9.65;;
69161;SDS011;56269;51.738;21.652;2023-06-22T01:10:28;16.47;;;9.50;;
69161;SDS011;56269;51.738;21.652;2023-06-22T01:13:04;16.95;;;8.93;;
69161;SDS011;56269;51.738;21.652;2023-06-22T01:15:43;16.90;;;8.98;;
69161;SDS011;56269;51.738;21.652;2023-06-22T01:18:11;15.38;;;8.43;;
69161;SDS011;56269;51.738;21.652;2023-06-22T01:20:39;15.85;;;8.75;;
69161;SDS011;56269;51.738;21.652;2023-06-22T01:28:40;17.30;;;9.65;;
69161;SDS011;56269;51.738;21.652;2023-06-22T01:31:10;17.35;;;9.63;;
69161;SDS011;56269;51.738;21.652;2023-06-22T01:33:39;18.05;;;9.35;;
69161;SDS011;56269;51.738;21.652;2023-06-22T01:36:07;16.43;;;9.10;;
69161;SDS011;56269;51.738;21.652;2023-06-22T01:38:35;18.65;;;9.82;;
69161;SDS011;56269;51.738;21.652;2023-06-22T01:41:03;17.30;;;9.65;;
69161;SDS011;56269;51.738;21.652;2023-06-22T01:43:29;18.65;;;9.48;;
69161;SDS011;56269;51.738;21.652;2023-06-22T01:45:57;20.25;;;10.45;;
69161;SDS011;56269;51.738;21.652;2023-06-22T01:48:24;18.13;;;9.73;;
69161;SDS011;56269;51.738;21.652;2023-06-22T01:50:52;20.55;;;10.18;;
69161;SDS011;56269;51.738;21.652;2023-06-22T01:53:22;17.88;;;9.20;;
69161;SDS011;56269;51.738;21.652;2023-06-22T01:55:49;17.63;;;9.02;;
69161;SDS011;56269;51.738;21.652;2023-06-22T01:58:15;19.33;;;10.40;;
69161;SDS011;56269;51.738;21.652;2023-06-22T02:00:47;18.33;;;9.50;;
69161;SDS011;56269;51.738;21.652;2023-06-22T02:03:19;16.17;;;8.73;;
69161;SDS011;56269;51.738;21.652;2023-06-22T02:06:08;18.92;;;9.57;;
69161;SDS011;56269;51.738;21.652;2023-06-22T02:08:41;19.08;;;9.48;;
69161;SDS011;56269;51.738;21.652;2023-06-22T02:11:12;18.00;;;9.27;;
69161;SDS011;56269;51.738;21.652;2023-06-22T02:13:40;16.80;;;8.87;;
69161;SDS011;56269;51.738;21.652;2023-06-22T02:16:10;17.33;;;8.95;;
69161;SDS011;56269;51.738;21.652;2023-06-22T02:18:38;17.75;;;9.40;;
69161;SDS011;56269;51.738;21.652;2023-06-22T02:21:06;19.38;;;10.13;;
69161;SDS011;56269;51.738;21.652;2023-06-22T02:23:32;18.63;;;9.50;;
69161;SDS011;56269;51.738;21.652;2023-06-22T02:26:02;18.33;;;9.50;;
69161;SDS011;56269;51.738;21.652;2023-06-22T02:28:28;19.70;;;10.73;;
69161;SDS011;56269;51.738;21.652;2023-06-22T02:30:55;20.55;;;10.88;;
69161;SDS011;56269;51.738;21.652;2023-06-22T02:33:21;20.65;;;10.60;;
69161;SDS011;56269;51.738;21.652;2023-06-22T02:35:47;20.50;;;10.90;;
69161;SDS011;56269;51.738;21.652;2023-06-22T02:38:14;20.42;;;11.00;;
69161;SDS011;56269;51.738;21.652;2023-06-22T02:40:41;22.17;;;11.68;;
69161;SDS011;56269;51.738;21.652;2023-06-22T02:43:07;20.92;;;11.43;;
69161;SDS011;56269;51.738;21.652;2023-06-22T02:45:33;21.98;;;11.55;;
69161;SDS011;56269;51.738;21.652;2023-06-22T02:47:59;21.23;;;11.57;;
69161;SDS011;56269;51.738;21.652;2023-06-22T02:50:25;21.20;;;11.32;;
69161;SDS011;56269;51.738;21.652;2023-06-22T02:52:51;20.08;;;10.52;;
69161;SDS011;56269;51.738;21.652;2023-06-22T02:55:17;20.20;;;10.52;;
69161;SDS011;56269;51.738;21.652;2023-06-22T02:57:43;19.52;;;10.63;;
69161;SDS011;56269;51.738;21.652;2023-06-22T03:00:12;18.10;;;10.60;;
69161;SDS011;56269;51.738;21.652;2023-06-22T03:02:43;20.75;;;10.55;;
69161;SDS011;56269;51.738;21.652;2023-06-22T03:05:10;24.52;;;13.00;;
69161;SDS011;56269;51.738;21.652;2023-06-22T03:07:42;26.25;;;14.68;;
69161;SDS011;56269;51.738;21.652;2023-06-22T03:10:09;23.52;;;13.80;;
69161;SDS011;56269;51.738;21.652;2023-06-22T03:12:39;23.63;;;13.73;;
69161;SDS011;56269;51.738;21.652;2023-06-22T03:15:07;22.52;;;12.73;;
69161;SDS011;56269;51.738;21.652;2023-06-22T03:17:34;21.55;;;11.68;;
69161;SDS011;56269;51.738;21.652;2023-06-22T03:20:02;21.33;;;11.02;;
69161;SDS011;56269;51.738;21.652;2023-06-22T03:22:39;17.67;;;10.27;;
69161;SDS011;56269;51.738;21.652;2023-06-22T03:25:07;17.50;;;9.40;;
69161;SDS011;56269;51.738;21.652;2023-06-22T03:27:42;18.25;;;9.77;;
69161;SDS011;56269;51.738;21.652;2023-06-22T03:30:10;14.43;;;8.10;;
69161;SDS011;56269;51.738;21.652;2023-06-22T03:32:37;14.48;;;7.93;;
69161;SDS011;56269;51.738;21.652;2023-06-22T03:35:03;14.57;;;7.93;;
69161;SDS011;56269;51.738;21.652;2023-06-22T03:37:31;16.13;;;7.77;;
69161;SDS011;56269;51.738;21.652;2023-06-22T03:39:57;14.02;;;7.95;;
69161;SDS011;56269;51.738;21.652;2023-06-22T03:42:23;15.32;;;8.07;;
69161;SDS011;56269;51.738;21.652;2023-06-22T03:44:50;14.40;;;7.35;;
69161;SDS011;56269;51.738;21.652;2023-06-22T03:47:16;14.93;;;8.13;;
69161;SDS011;56269;51.738;21.652;2023-06-22T03:49:43;14.83;;;7.60;;
69161;SDS011;56269;51.738;21.652;2023-06-22T03:52:09;13.65;;;7.68;;
69161;SDS011;56269;51.738;21.652;2023-06-22T03:54:36;14.38;;;7.50;;
69161;SDS011;56269;51.738;21.652;2023-06-22T03:57:02;13.23;;;7.47;;
69161;SDS011;56269;51.738;21.652;2023-06-22T03:59:29;12.43;;;7.00;;
69161;SDS011;56269;51.738;21.652;2023-06-22T04:01:55;13.90;;;7.57;;
69161;SDS011;56269;51.738;21.652;2023-06-22T04:04:21;15.48;;;8.25;;
69161;SDS011;56269;51.738;21.652;2023-06-22T04:06:47;14.57;;;7.45;;
69161;SDS011;56269;51.738;21.652;2023-06-22T04:09:13;14.15;;;7.75;;
69161;SDS011;56269;51.738;21.652;2023-06-22T04:11:39;14.47;;;7.43;;
69161;SDS011;56269;51.738;21.652;2023-06-22T04:14:06;13.80;;;7.15;;
69161;SDS011;56269;51.738;21.652;2023-06-22T04:16:32;13.70;;;7.72;;
69161;SDS011;56269;51.738;21.652;2023-06-22T04:18:59;14.23;;;7.93;;
69161;SDS011;56269;51.738;21.652;2023-06-22T04:21:25;14.43;;;8.30;;
69161;SDS011;56269;51.738;21.652;2023-06-22T04:23:51;12.77;;;6.73;;
69161;SDS011;56269;51.738;21.652;2023-06-22T04:26:17;15.68;;;8.73;;
69161;SDS011;56269;51.738;21.652;2023-06-22T04:28:47;13.48;;;7.85;;
69161;SDS011;56269;51.738;21.652;2023-06-22T04:31:17;15.70;;;8.55;;
69161;SDS011;56269;51.738;21.652;2023-06-22T04:33:48;14.07;;;7.50;;
69161;SDS011;56269;51.738;21.652;2023-06-22T04:36:16;15.13;;;8.63;;
69161;SDS011;56269;51.738;21.652;2023-06-22T04:38:43;14.73;;;8.70;;
69161;SDS011;56269;51.738;21.652;2023-06-22T04:41:10;15.52;;;8.30;;
69161;SDS011;56269;51.738;21.652;2023-06-22T04:43:40;14.60;;;8.15;;
69161;SDS011;56269;51.738;21.652;2023-06-22T04:46:05;15.30;;;8.43;;
69161;SDS011;56269;51.738;21.652;2023-06-22T04:48:32;16.73;;;9.15;;
69161;SDS011;56269;51.738;21.652;2023-06-22T04:50:58;17.25;;;8.52;;
69161;SDS011;56269;51.738;21.652;2023-06-22T04:53:30;16.05;;;7.90;;
69161;SDS011;56269;51.738;21.652;2023-06-22T04:55:56;18.65;;;9.10;;
69161;SDS011;56269;51.738;21.652;2023-06-22T04:58:23;17.67;;;9.57;;
69161;SDS011;56269;51.738;21.652;2023-06-22T05:00:54;17.55;;;8.60;;
69161;SDS011;56269;51.738;21.652;2023-06-22T05:03:22;19.40;;;10.48;;
69161;SDS011;56269;51.738;21.652;2023-06-22T05:05:51;17.52;;;9.23;;
69161;SDS011;56269;51.738;21.652;2023-06-22T05:08:19;18.60;;;8.93;;
69161;SDS011;56269;51.738;21.652;2023-06-22T05:10:45;17.37;;;8.80;;
69161;SDS011;56269;51.738;21.652;2023-06-22T05:13:11;19.75;;;10.30;;
69161;SDS011;56269;51.738;21.652;2023-06-22T05:15:37;19.00;;;10.20;;
69161;SDS011;56269;51.738;21.652;2023-06-22T05:18:06;20.20;;;10.98;;
69161;SDS011;56269;51.738;21.652;2023-06-22T05:20:32;16.83;;;8.47;;
69161;SDS011;56269;51.738;21.652;2023-06-22T05:23:01;18.55;;;9.25;;
69161;SDS011;56269;51.738;21.652;2023-06-22T05:25:27;19.70;;;9.98;;
69161;SDS011;56269;51.738;21.652;2023-06-22T05:27:55;17.40;;;8.95;;
69161;SDS011;56269;51.738;21.652;2023-06-22T05:30:21;18.58;;;9.60;;
69161;SDS011;56269;51.738;21.652;2023-06-22T05:32:48;17.23;;;9.27;;
69161;SDS011;56269;51.738;21.652;2023-06-22T05:35:13;20.25;;;11.27;;
69161;SDS011;56269;51.738;21.652;2023-06-22T05:37:40;16.92;;;9.63;;
69161;SDS011;56269;51.738;21.652;2023-06-22T05:40:06;18.33;;;10.25;;
69161;SDS011;56269;51.738;21.652;2023-06-22T05:42:33;19.10;;;9.65;;
69161;SDS011;56269;51.738;21.652;2023-06-22T05:44:59;21.67;;;12.00;;
69161;SDS011;56269;51.738;21.652;2023-06-22T05:47:25;18.65;;;10.45;;
69161;SDS011;56269;51.738;21.652;2023-06-22T05:49:51;19.83;;;10.02;;
69161;SDS011;56269;51.738;21.652;2023-06-22T05:52:18;18.45;;;10.38;;
69161;SDS011;56269;51.738;21.652;2023-06-22T05:54:43;21.50;;;11.73;;
69161;SDS011;56269;51.738;21.652;2023-06-22T05:57:10;21.17;;;10.98;;
69161;SDS011;56269;51.738;21.652;2023-06-22T05:59:36;21.92;;;10.65;;
69161;SDS011;56269;51.738;21.652;2023-06-22T06:02:02;22.67;;;12.00;;
69161;SDS011;56269;51.738;21.652;2023-06-22T06:04:28;22.25;;;11.73;;
69161;SDS011;56269;51.738;21.652;2023-06-22T06:06:54;18.53;;;10.07;;
69161;SDS011;56269;51.738;21.652;2023-06-22T06:09:20;22.70;;;11.40;;
69161;SDS011;56269;51.738;21.652;2023-06-22T06:11:47;20.83;;;10.85;;
69161;SDS011;56269;51.738;21.652;2023-06-22T06:14:13;21.70;;;12.25;;
69161;SDS011;56269;51.738;21.652;2023-06-22T06:16:39;21.77;;;10.97;;
69161;SDS011;56269;51.738;21.652;2023-06-22T06:19:05;23.10;;;12.30;;
69161;SDS011;56269;51.738;21.652;2023-06-22T06:21:31;22.98;;;12.20;;
69161;SDS011;56269;51.738;21.652;2023-06-22T06:23:57;19.55;;;10.35;;
69161;SDS011;56269;51.738;21.652;2023-06-22T06:26:24;22.00;;;10.43;;
69161;SDS011;56269;51.738;21.652;2023-06-22T06:28:55;19.53;;;9.53;;
69161;SDS011;56269;51.738;21.652;2023-06-22T06:31:23;22.92;;;10.48;;
69161;SDS011;56269;51.738;21.652;2023-06-22T06:33:49;18.98;;;8.38;;
69161;SDS011;56269;51.738;21.652;2023-06-22T06:36:15;22.67;;;11.60;;
69161;SDS011;56269;51.738;21.652;2023-06-22T06:38:42;22.98;;;12.38;;
69161;SDS011;56269;51.738;21.652;2023-06-22T06:41:08;22.13;;;10.77;;
69161;SDS011;56269;51.738;21.652;2023-06-22T06:43:34;19.23;;;9.57;;
69161;SDS011;56269;51.738;21.652;2023-06-22T06:46:00;22.80;;;11.57;;
69161;SDS011;56269;51.738;21.652;2023-06-22T06:48:28;22.67;;;11.02;;
69161;SDS011;56269;51.738;21.652;2023-06-22T06:50:54;22.25;;;11.23;;
69161;SDS011;56269;51.738;21.652;2023-06-22T06:53:20;20.43;;;9.93;;
69161;SDS011;56269;51.738;21.652;2023-06-22T06:55:47;16.23;;;7.40;;
69161;SDS011;56269;51.738;21.652;2023-06-22T06:58:13;25.55;;;12.85;;
69161;SDS011;56269;51.738;21.652;2023-06-22T07:00:39;19.95;;;8.82;;
69161;SDS011;56269;51.738;21.652;2023-06-22T07:03:05;20.02;;;10.77;;
69161;SDS011;56269;51.738;21.652;2023-06-22T07:05:32;22.80;;;11.53;;
69161;SDS011;56269;51.738;21.652;2023-06-22T07:07:58;21.58;;;11.27;;
69161;SDS011;56269;51.738;21.652;2023-06-22T07:10:25;19.67;;;9.82;;
69161;SDS011;56269;51.738;21.652;2023-06-22T07:12:51;22.58;;;11.38;;
69161;SDS011;56269;51.738;21.652;2023-06-22T07:15:17;22.38;;;11.45;;
69161;SDS011;56269;51.738;21.652;2023-06-22T07:17:43;21.50;;;10.27;;
69161;SDS011;56269;51.738;21.652;2023-06-22T07:20:10;18.77;;;10.15;;
69161;SDS011;56269;51.738;21.652;2023-06-22T07:22:37;21.20;;;10.82;;
69161;SDS011;56269;51.738;21.652;2023-06-22T07:25:05;21.00;;;10.60;;
69161;SDS011;56269;51.738;21.652;2023-06-22T07:27:36;19.83;;;10.57;;
69161;SDS011;56269;51.738;21.652;2023-06-22T07:30:04;17.13;;;9.07;;
69161;SDS011;56269;51.738;21.652;2023-06-22T07:32:30;21.77;;;10.45;;
69161;SDS011;56269;51.738;21.652;2023-06-22T07:34:58;17.67;;;8.68;;
69161;SDS011;56269;51.738;21.652;2023-06-22T07:37:24;18.90;;;10.32;;
69161;SDS011;56269;51.738;21.652;2023-06-22T07:39:50;14.60;;;7.73;;
69161;SDS011;56269;51.738;21.652;2023-06-22T07:42:19;18.20;;;9.98;;
69161;SDS011;56269;51.738;21.652;2023-06-22T07:44:45;15.50;;;7.95;;
69161;SDS011;56269;51.738;21.652;2023-06-22T07:47:11;15.65;;;8.82;;
69161;SDS011;56269;51.738;21.652;2023-06-22T07:49:37;13.83;;;7.67;;
69161;SDS011;56269;51.738;21.652;2023-06-22T07:52:03;15.55;;;7.57;;
69161;SDS011;56269;51.738;21.652;2023-06-22T07:54:30;16.65;;;9.15;;
69161;SDS011;56269;51.738;21.652;2023-06-22T07:56:56;18.50;;;9.13;;
69161;SDS011;56269;51.738;21.652;2023-06-22T07:59:23;16.50;;;9.38;;
69161;SDS011;56269;51.738;21.652;2023-06-22T08:01:49;17.80;;;9.27;;
69161;SDS011;56269;51.738;21.652;2023-06-22T08:04:16;17.13;;;8.30;;
69161;SDS011;56269;51.738;21.652;2023-06-22T08:06:42;16.75;;;8.63;;
69161;SDS011;56269;51.738;21.652;2023-06-22T08:09:09;14.48;;;7.72;;
69161;SDS011;56269;51.738;21.652;2023-06-22T08:11:35;15.95;;;9.05;;
69161;SDS011;56269;51.738;21.652;2023-06-22T08:14:01;16.30;;;8.97;;
69161;SDS011;56269;51.738;21.652;2023-06-22T08:16:27;14.35;;;7.93;;
69161;SDS011;56269;51.738;21.652;2023-06-22T08:18:54;14.15;;;6.00;;
69161;SDS011;56269;51.738;21.652;2023-06-22T08:21:20;14.02;;;7.78;;
69161;SDS011;56269;51.738;21.652;2023-06-22T08:23:46;16.40;;;9.27;;
69161;SDS011;56269;51.738;21.652;2023-06-22T08:26:13;9.43;;;4.33;;
69161;SDS011;56269;51.738;21.652;2023-06-22T08:28:40;14.43;;;7.70;;
69161;SDS011;56269;51.738;21.652;2023-06-22T08:31:06;16.60;;;9.10;;
69161;SDS011;56269;51.738;21.652;2023-06-22T08:33:33;13.55;;;7.13;;
69161;SDS011;56269;51.738;21.652;2023-06-22T08:35:59;10.85;;;5.53;;
69161;SDS011;56269;51.738;21.652;2023-06-22T08:38:26;13.83;;;7.23;;
69161;SDS011;56269;51.738;21.652;2023-06-22T08:40:52;14.38;;;8.00;;
69161;SDS011;56269;51.738;21.652;2023-06-22T08:43:18;15.07;;;8.45;;
69161;SDS011;56269;51.738;21.652;2023-06-22T08:45:44;13.63;;;7.60;;
69161;SDS011;56269;51.738;21.652;2023-06-22T08:48:11;13.93;;;7.70;;
69161;SDS011;56269;51.738;21.652;2023-06-22T08:50:37;13.63;;;7.40;;
69161;SDS011;56269;51.738;21.652;2023-06-22T08:53:03;14.57;;;6.65;;
69161;SDS011;56269;51.738;21.652;2023-06-22T08:55:29;13.45;;;7.40;;
69161;SDS011;56269;51.738;21.652;2023-06-22T08:57:55;13.07;;;6.78;;
69161;SDS011;56269;51.738;21.652;2023-06-22T09:00:21;12.23;;;7.20;;
69161;SDS011;56269;51.738;21.652;2023-06-22T09:02:48;12.13;;;7.10;;
69161;SDS011;56269;51.738;21.652;2023-06-22T09:05:14;9.93;;;5.63;;
69161;SDS011;56269;51.738;21.652;2023-06-22T09:07:41;11.75;;;6.47;;
69161;SDS011;56269;51.738;21.652;2023-06-22T09:10:08;11.10;;;6.43;;
69161;SDS011;56269;51.738;21.652;2023-06-22T09:12:35;11.23;;;6.27;;
69161;SDS011;56269;51.738;21.652;2023-06-22T09:15:03;10.63;;;6.25;;
69161;SDS011;56269;51.738;21.652;2023-06-22T09:17:30;10.98;;;5.72;;
69161;SDS011;56269;51.738;21.652;2023-06-22T09:19:56;10.77;;;6.13;;
69161;SDS011;56269;51.738;21.652;2023-06-22T09:22:22;11.70;;;4.38;;
69161;SDS011;56269;51.738;21.652;2023-06-22T09:24:50;9.80;;;5.33;;
69161;SDS011;56269;51.738;21.652;2023-06-22T09:27:16;11.35;;;6.10;;
69161;SDS011;56269;51.738;21.652;2023-06-22T09:29:42;11.55;;;6.47;;
69161;SDS011;56269;51.738;21.652;2023-06-22T09:32:09;10.90;;;6.47;;
69161;SDS011;56269;51.738;21.652;2023-06-22T09:34:35;11.50;;;4.88;;
69161;SDS011;56269;51.738;21.652;2023-06-22T09:37:01;10.13;;;5.80;;
69161;SDS011;56269;51.738;21.652;2023-06-22T09:39:27;9.82;;;5.55;;
69161;SDS011;56269;51.738;21.652;2023-06-22T09:41:54;9.68;;;5.20;;
69161;SDS011;56269;51.738;21.652;2023-06-22T09:44:20;9.40;;;5.45;;
69161;SDS011;56269;51.738;21.652;2023-06-22T09:46:46;7.90;;;4.25;;
69161;SDS011;56269;51.738;21.652;2023-06-22T09:49:12;10.00;;;5.37;;
69161;SDS011;56269;51.738;21.652;2023-06-22T09:51:38;7.55;;;3.67;;
69161;SDS011;56269;51.738;21.652;2023-06-22T09:54:04;8.88;;;5.10;;
69161;SDS011;56269;51.738;21.652;2023-06-22T09:56:31;8.73;;;4.82;;
69161;SDS011;56269;51.738;21.652;2023-06-22T09:58:57;8.52;;;4.68;;
69161;SDS011;56269;51.738;21.652;2023-06-22T10:01:23;8.27;;;4.50;;
69161;SDS011;56269;51.738;21.652;2023-06-22T10:03:53;7.95;;;4.47;;
69161;SDS011;56269;51.738;21.652;2023-06-22T10:06:22;7.53;;;4.13;;
69161;SDS011;56269;51.738;21.652;2023-06-22T10:08:50;8.40;;;4.63;;
69161;SDS011;56269;51.738;21.652;2023-06-22T10:11:17;6.85;;;3.58;;
69161;SDS011;56269;51.738;21.652;2023-06-22T10:13:43;8.03;;;3.87;;
69161;SDS011;56269;51.738;21.652;2023-06-22T10:16:09;7.60;;;3.50;;
69161;SDS011;56269;51.738;21.652;2023-06-22T10:18:36;6.05;;;3.10;;
69161;SDS011;56269;51.738;21.652;2023-06-22T10:21:02;7.70;;;3.63;;
69161;SDS011;56269;51.738;21.652;2023-06-22T10:23:28;6.88;;;3.78;;
69161;SDS011;56269;51.738;21.652;2023-06-22T10:25:54;7.03;;;3.70;;
69161;SDS011;56269;51.738;21.652;2023-06-22T10:28:23;5.65;;;2.85;;
69161;SDS011;56269;51.738;21.652;2023-06-22T10:30:49;5.53;;;2.60;;
69161;SDS011;56269;51.738;21.652;2023-06-22T10:33:15;5.85;;;2.78;;
69161;SDS011;56269;51.738;21.652;2023-06-22T10:35:42;5.38;;;2.38;;
69161;SDS011;56269;51.738;21.652;2023-06-22T10:38:08;6.17;;;2.70;;
69161;SDS011;56269;51.738;21.652;2023-06-22T10:40:34;5.25;;;2.38;;
69161;SDS011;56269;51.738;21.652;2023-06-22T10:43:00;5.32;;;2.08;;
69161;SDS011;56269;51.738;21.652;2023-06-22T10:45:27;4.80;;;2.13;;
69161;SDS011;56269;51.738;21.652;2023-06-22T10:47:53;5.60;;;2.60;;
69161;SDS011;56269;51.738;21.652;2023-06-22T10:50:19;4.90;;;2.10;;
69161;SDS011;56269;51.738;21.652;2023-06-22T10:52:45;5.07;;;2.28;;
69161;SDS011;56269;51.738;21.652;2023-06-22T10:55:12;5.50;;;2.50;;
69161;SDS011;56269;51.738;21.652;2023-06-22T10:57:38;4.70;;;1.90;;
69161;SDS011;56269;51.738;21.652;2023-06-22T11:00:07;5.43;;;2.08;;
69161;SDS011;56269;51.738;21.652;2023-06-22T11:02:34;4.93;;;2.00;;
69161;SDS011;56269;51.738;21.652;2023-06-22T11:05:00;3.95;;;1.75;;
69161;SDS011;56269;51.738;21.652;2023-06-22T11:07:26;5.32;;;2.13;;
69161;SDS011;56269;51.738;21.652;2023-06-22T11:09:54;4.82;;;2.00;;
69161;SDS011;56269;51.738;21.652;2023-06-22T11:12:21;4.80;;;2.10;;
69161;SDS011;56269;51.738;21.652;2023-06-22T11:14:47;4.40;;;1.80;;
69161;SDS011;56269;51.738;21.652;2023-06-22T11:17:15;4.50;;;1.80;;
69161;SDS011;56269;51.738;21.652;2023-06-22T11:19:41;4.53;;;1.73;;
69161;SDS011;56269;51.738;21.652;2023-06-22T11:22:07;5.63;;;1.77;;
69161;SDS011;56269;51.738;21.652;2023-06-22T11:24:34;4.38;;;1.83;;
69161;SDS011;56269;51.738;21.652;2023-06-22T11:27:00;4.70;;;1.90;;
69161;SDS011;56269;51.738;21.652;2023-06-22T11:29:26;4.45;;;1.80;;
69161;SDS011;56269;51.738;21.652;2023-06-22T11:31:52;4.15;;;1.60;;
69161;SDS011;56269;51.738;21.652;2023-06-22T11:34:18;3.63;;;1.52;;
69161;SDS011;56269;51.738;21.652;2023-06-22T11:36:45;3.97;;;1.50;;
69161;SDS011;56269;51.738;21.652;2023-06-22T11:39:11;4.87;;;1.70;;
69161;SDS011;56269;51.738;21.652;2023-06-22T11:41:40;4.43;;;1.80;;
69161;SDS011;56269;51.738;21.652;2023-06-22T11:44:07;3.95;;;1.52;;
69161;SDS011;56269;51.738;21.652;2023-06-22T11:46:34;4.10;;;1.75;;
69161;SDS011;56269;51.738;21.652;2023-06-22T11:49:01;4.72;;;1.98;;
69161;SDS011;56269;51.738;21.652;2023-06-22T11:51:27;3.87;;;1.60;;
69161;SDS011;56269;51.738;21.652;2023-06-22T11:53:53;3.08;;;1.10;;
69161;SDS011;56269;51.738;21.652;2023-06-22T11:56:19;3.33;;;1.38;;
69161;SDS011;56269;51.738;21.652;2023-06-22T11:58:46;4.05;;;1.52;;
69161;SDS011;56269;51.738;21.652;2023-06-22T12:01:12;4.60;;;1.80;;
69161;SDS011;56269;51.738;21.652;2023-06-22T12:03:41;4.43;;;1.60;;
69161;SDS011;56269;51.738;21.652;2023-06-22T12:06:09;4.18;;;1.40;;
69161;SDS011;56269;51.738;21.652;2023-06-22T12:08:35;3.58;;;1.40;;
69161;SDS011;56269;51.738;21.652;2023-06-22T12:11:01;4.47;;;1.80;;
69161;SDS011;56269;51.738;21.652;2023-06-22T12:13:28;3.70;;;1.45;;
69161;SDS011;56269;51.738;21.652;2023-06-22T12:15:54;3.73;;;1.50;;
69161;SDS011;56269;51.738;21.652;2023-06-22T12:18:20;4.00;;;1.70;;
69161;SDS011;56269;51.738;21.652;2023-06-22T12:20:47;5.65;;;1.90;;
69161;SDS011;56269;51.738;21.652;2023-06-22T12:23:14;5.53;;;2.00;;
69161;SDS011;56269;51.738;21.652;2023-06-22T12:25:40;4.30;;;1.67;;
69161;SDS011;56269;51.738;21.652;2023-06-22T12:28:08;4.67;;;1.80;;
69161;SDS011;56269;51.738;21.652;2023-06-22T12:30:35;3.95;;;1.65;;
69161;SDS011;56269;51.738;21.652;2023-06-22T12:33:01;5.80;;;2.05;;
69161;SDS011;56269;51.738;21.652;2023-06-22T12:35:27;4.47;;;1.70;;
69161;SDS011;56269;51.738;21.652;2023-06-22T12:37:54;4.85;;;2.10;;
69161;SDS011;56269;51.738;21.652;2023-06-22T12:40:20;4.50;;;1.90;;
69161;SDS011;56269;51.738;21.652;2023-06-22T12:42:46;4.13;;;1.80;;
69161;SDS011;56269;51.738;21.652;2023-06-22T12:45:12;4.53;;;1.48;;
69161;SDS011;56269;51.738;21.652;2023-06-22T12:47:38;3.45;;;1.35;;
69161;SDS011;56269;51.738;21.652;2023-06-22T12:50:04;3.63;;;1.40;;
69161;SDS011;56269;51.738;21.652;2023-06-22T12:52:31;4.13;;;1.65;;
69161;SDS011;56269;51.738;21.652;2023-06-22T12:54:57;3.28;;;1.27;;
69161;SDS011;56269;51.738;21.652;2023-06-22T12:57:24;3.67;;;1.17;;
69161;SDS011;56269;51.738;21.652;2023-06-22T12:59:51;3.88;;;1.50;;
69161;SDS011;56269;51.738;21.652;2023-06-22T13:02:17;3.83;;;1.50;;
69161;SDS011;56269;51.738;21.652;2023-06-22T13:04:43;3.90;;;1.50;;
69161;SDS011;56269;51.738;21.652;2023-06-22T13:07:10;4.20;;;1.42;;
69161;SDS011;56269;51.738;21.652;2023-06-22T13:09:36;2.95;;;1.02;;
69161;SDS011;56269;51.738;21.652;2023-06-22T13:12:02;4.18;;;1.65;;
69161;SDS011;56269;51.738;21.652;2023-06-22T13:14:29;4.13;;;1.60;;
69161;SDS011;56269;51.738;21.652;2023-06-22T13:16:55;4.20;;;1.55;;
69161;SDS011;56269;51.738;21.652;2023-06-22T13:19:21;4.32;;;1.60;;
69161;SDS011;56269;51.738;21.652;2023-06-22T13:21:47;4.38;;;1.70;;
69161;SDS011;56269;51.738;21.652;2023-06-22T13:24:13;3.78;;;1.40;;
69161;SDS011;56269;51.738;21.652;2023-06-22T13:26:40;4.40;;;1.70;;
69161;SDS011;56269;51.738;21.652;2023-06-22T13:29:06;4.78;;;1.77;;
69161;SDS011;56269;51.738;21.652;2023-06-22T13:31:32;3.80;;;1.48;;
69161;SDS011;56269;51.738;21.652;2023-06-22T13:33:58;4.30;;;1.60;;
69161;SDS011;56269;51.738;21.652;2023-06-22T13:36:25;3.95;;;1.50;;
69161;SDS011;56269;51.738;21.652;2023-06-22T13:38:51;4.20;;;1.67;;
69161;SDS011;56269;51.738;21.652;2023-06-22T13:41:17;4.53;;;1.70;;
69161;SDS011;56269;51.738;21.652;2023-06-22T13:43:43;3.95;;;1.50;;
69161;SDS011;56269;51.738;21.652;2023-06-22T13:46:10;4.32;;;1.70;;
69161;SDS011;56269;51.738;21.652;2023-06-22T13:48:36;4.63;;;1.70;;
69161;SDS011;56269;51.738;21.652;2023-06-22T13:51:02;4.20;;;1.60;;
69161;SDS011;56269;51.738;21.652;2023-06-22T13:53:28;3.67;;;1.48;;
69161;SDS011;56269;51.738;21.652;2023-06-22T13:55:55;4.30;;;1.58;;
69161;SDS011;56269;51.738;21.652;2023-06-22T13:58:21;4.57;;;1.83;;
69161;SDS011;56269;51.738;21.652;2023-06-22T14:00:48;3.85;;;1.67;;
69161;SDS011;56269;51.738;21.652;2023-06-22T14:03:14;4.50;;;1.60;;
69161;SDS011;56269;51.738;21.652;2023-06-22T14:05:42;4.70;;;1.70;;
69161;SDS011;56269;51.738;21.652;2023-06-22T14:08:09;4.57;;;1.90;;
69161;SDS011;56269;51.738;21.652;2023-06-22T14:10:35;5.20;;;2.20;;
69161;SDS011;56269;51.738;21.652;2023-06-22T14:13:01;8.20;;;2.35;;
69161;SDS011;56269;51.738;21.652;2023-06-22T14:15:27;4.63;;;1.70;;
69161;SDS011;56269;51.738;21.652;2023-06-22T14:17:53;3.80;;;1.70;;
69161;SDS011;56269;51.738;21.652;2023-06-22T14:20:20;4.18;;;1.80;;
69161;SDS011;56269;51.738;21.652;2023-06-22T14:22:46;3.90;;;1.42;;
69161;SDS011;56269;51.738;21.652;2023-06-22T14:25:12;3.63;;;1.40;;
69161;SDS011;56269;51.738;21.652;2023-06-22T14:27:38;4.60;;;1.83;;